createdAt,value
2016-08-16T00:00:02.513Z,964.48
2016-08-16T00:01:02.326Z,964.44
2016-08-16T00:02:02.585Z,964.46
2016-08-16T00:03:02.343Z,964.48
2016-08-16T00:04:02.506Z,964.44
2016-08-16T00:05:02.613Z,964.44
2016-08-16T00:06:02.367Z,964.46
2016-08-16T00:07:02.376Z,964.5
2016-08-16T00:08:02.439Z,964.49
2016-08-16T00:09:02.639Z,964.47
2016-08-16T00:10:02.403Z,964.46
2016-08-16T00:11:02.412Z,964.48
2016-08-16T00:12:02.419Z,964.46
2016-08-16T00:13:02.427Z,964.43
2016-08-16T00:14:02.490Z,964.46
2016-08-16T00:15:02.444Z,964.45
2016-08-16T00:16:02.594Z,964.48
2016-08-16T00:17:02.454Z,964.47
2016-08-16T00:18:02.471Z,964.46
2016-08-16T00:19:02.477Z,964.47
2016-08-16T00:20:02.582Z,964.46
2016-08-16T00:21:02.647Z,964.45
2016-08-16T00:22:02.503Z,964.43
2016-08-16T00:23:02.511Z,964.38
2016-08-16T00:24:02.545Z,964.41
2016-08-16T00:25:02.525Z,964.46
2016-08-16T00:26:02.528Z,964.42
2016-08-16T00:27:02.536Z,964.42
2016-08-16T00:28:02.546Z,964.41
2016-08-16T00:29:02.561Z,964.38
2016-08-16T00:30:02.564Z,964.37
2016-08-16T00:31:02.577Z,964.36
2016-08-16T00:32:02.586Z,964.37
2016-08-16T00:33:02.588Z,964.38
2016-08-16T00:34:02.608Z,964.37
2016-08-16T00:35:02.614Z,964.35
2016-08-16T00:36:02.619Z,964.39
2016-08-16T00:37:02.619Z,964.39
2016-08-16T00:38:02.636Z,964.36
2016-08-16T00:39:02.644Z,964.35
2016-08-16T00:40:02.654Z,964.39
2016-08-16T00:41:02.654Z,964.37
2016-08-16T00:42:02.663Z,964.38
2016-08-16T00:43:02.682Z,964.4
2016-08-16T00:44:02.685Z,964.38
2016-08-16T00:45:02.694Z,964.35
2016-08-16T00:46:02.715Z,964.31
2016-08-16T00:47:02.711Z,964.31
2016-08-16T00:48:02.711Z,964.3
2016-08-16T00:49:02.729Z,964.31
2016-08-16T00:50:02.737Z,964.31
2016-08-16T00:51:02.737Z,964.31
2016-08-16T00:52:02.748Z,964.34
2016-08-16T00:53:02.765Z,964.37
2016-08-16T00:54:02.771Z,964.34
2016-08-16T00:55:02.771Z,964.35
2016-08-16T00:56:02.787Z,964.33
2016-08-16T00:57:02.790Z,964.32
2016-08-16T00:58:02.802Z,964.34
2016-08-16T00:59:02.805Z,964.28
2016-08-16T01:00:02.828Z,964.31
2016-08-16T01:01:02.827Z,964.31
2016-08-16T01:02:02.829Z,964.3
2016-08-16T01:03:02.837Z,964.29
2016-08-16T01:04:02.854Z,964.32
2016-08-16T01:05:02.864Z,964.27
2016-08-16T01:06:02.860Z,964.3
2016-08-16T01:07:02.870Z,964.28
2016-08-16T01:08:02.886Z,964.32
2016-08-16T01:09:02.888Z,964.27
2016-08-16T01:10:02.895Z,964.28
2016-08-16T01:11:02.904Z,964.28
2016-08-16T01:12:02.920Z,964.29
2016-08-16T01:13:02.923Z,964.27
2016-08-16T01:14:02.938Z,964.28
2016-08-16T01:15:02.944Z,964.27
2016-08-16T01:16:02.954Z,964.23
2016-08-16T01:17:02.956Z,964.22
2016-08-16T01:18:02.963Z,964.25
2016-08-16T01:19:02.975Z,964.22
2016-08-16T01:20:02.988Z,964.27
2016-08-16T01:21:02.988Z,964.26
2016-08-16T01:22:02.996Z,964.26
2016-08-16T01:23:03.006Z,964.26
2016-08-16T01:24:03.019Z,964.24
2016-08-16T01:25:03.029Z,964.26
2016-08-16T01:26:03.031Z,964.25
2016-08-16T01:27:03.049Z,964.27
2016-08-16T01:28:03.054Z,964.26
2016-08-16T01:29:03.062Z,964.26
2016-08-16T01:30:03.072Z,964.22
2016-08-16T01:31:03.071Z,964.26
2016-08-16T01:32:03.080Z,964.23
2016-08-16T01:33:03.096Z,964.25
2016-08-16T01:34:03.110Z,964.22
2016-08-16T01:35:03.116Z,964.26
2016-08-16T01:36:03.112Z,964.26
2016-08-16T01:37:03.124Z,964.3
2016-08-16T01:38:03.138Z,964.35
2016-08-16T01:39:03.139Z,964.35
2016-08-16T01:40:03.145Z,964.34
2016-08-16T01:41:03.164Z,964.33
2016-08-16T01:42:03.172Z,964.33
2016-08-16T01:43:03.174Z,964.32
2016-08-16T01:44:03.187Z,964.35
2016-08-16T01:45:03.190Z,964.34
2016-08-16T01:46:03.198Z,964.35
2016-08-16T01:47:03.208Z,964.35
2016-08-16T01:48:03.222Z,964.34
2016-08-16T01:49:03.231Z,964.35
2016-08-16T01:50:03.235Z,964.37
2016-08-16T01:51:03.244Z,964.34
2016-08-16T01:52:03.249Z,964.35
2016-08-16T01:53:03.257Z,964.36
2016-08-16T01:54:03.270Z,964.34
2016-08-16T01:55:03.277Z,964.34
2016-08-16T01:56:03.283Z,964.32
2016-08-16T01:57:03.292Z,964.34
2016-08-16T01:58:03.305Z,964.29
2016-08-16T01:59:03.308Z,964.29
2016-08-16T02:00:03.329Z,964.27
2016-08-16T02:01:03.340Z,964.27
2016-08-16T02:02:03.338Z,964.28
2016-08-16T02:03:03.347Z,964.26
2016-08-16T02:04:03.358Z,964.25
2016-08-16T02:05:03.364Z,964.25
2016-08-16T02:06:03.365Z,964.24
2016-08-16T02:07:03.381Z,964.29
2016-08-16T02:08:03.383Z,964.23
2016-08-16T02:09:03.397Z,964.22
2016-08-16T02:10:03.405Z,964.18
2016-08-16T02:11:03.408Z,964.16
2016-08-16T02:12:03.421Z,964.14
2016-08-16T02:13:03.423Z,964.13
2016-08-16T02:14:03.439Z,964.13
2016-08-16T02:15:03.441Z,964.11
2016-08-16T02:16:03.459Z,964.13
2016-08-16T02:17:03.464Z,964.12
2016-08-16T02:18:03.475Z,964.09
2016-08-16T02:19:03.482Z,964.08
2016-08-16T02:20:03.487Z,964.08
2016-08-16T02:21:03.498Z,964.06
2016-08-16T02:22:03.498Z,964.04
2016-08-16T02:23:03.506Z,964.02
2016-08-16T02:24:03.523Z,964.03
2016-08-16T02:25:03.526Z,963.98
2016-08-16T02:26:03.535Z,964.02
2016-08-16T02:27:03.540Z,963.99
2016-08-16T02:28:03.755Z,963.99
2016-08-16T02:29:03.561Z,963.98
2016-08-16T02:30:03.571Z,963.99
2016-08-16T02:31:03.568Z,963.96
2016-08-16T02:32:03.582Z,963.95
2016-08-16T02:33:03.593Z,963.93
2016-08-16T02:34:03.598Z,963.96
2016-08-16T02:35:03.608Z,963.94
2016-08-16T02:36:03.619Z,963.93
2016-08-16T02:37:03.625Z,963.93
2016-08-16T02:38:03.636Z,963.92
2016-08-16T02:39:03.645Z,963.94
2016-08-16T02:40:03.647Z,963.89
2016-08-16T02:41:03.656Z,963.91
2016-08-16T02:42:03.666Z,963.91
2016-08-16T02:43:03.682Z,963.9
2016-08-16T02:44:03.692Z,963.9
2016-08-16T02:45:03.695Z,963.9
2016-08-16T02:46:03.700Z,963.91
2016-08-16T02:47:03.708Z,963.91
2016-08-16T02:48:03.723Z,963.88
2016-08-16T02:49:03.729Z,963.86
2016-08-16T02:50:03.737Z,963.89
2016-08-16T02:51:03.747Z,963.89
2016-08-16T02:52:03.754Z,963.84
2016-08-16T02:53:03.763Z,963.88
2016-08-16T02:54:03.768Z,963.83
2016-08-16T02:55:03.774Z,963.87
2016-08-16T02:56:03.781Z,963.88
2016-08-16T02:57:03.790Z,963.86
2016-08-16T02:58:03.807Z,963.85
2016-08-16T02:59:03.805Z,963.87
2016-08-16T03:00:03.821Z,963.88
2016-08-16T03:01:03.818Z,963.86
2016-08-16T03:02:03.846Z,963.89
2016-08-16T03:03:03.839Z,963.85
2016-08-16T03:04:03.855Z,963.84
2016-08-16T03:05:03.855Z,963.85
2016-08-16T03:06:03.865Z,963.81
2016-08-16T03:07:03.878Z,963.82
2016-08-16T03:08:03.879Z,963.82
2016-08-16T03:09:03.895Z,963.83
2016-08-16T03:10:03.897Z,963.84
2016-08-16T03:11:03.905Z,963.83
2016-08-16T03:12:03.914Z,963.84
2016-08-16T03:13:03.929Z,963.85
2016-08-16T03:14:03.937Z,963.85
2016-08-16T03:15:03.938Z,963.84
2016-08-16T03:16:03.949Z,963.82
2016-08-16T03:17:03.957Z,963.86
2016-08-16T03:18:03.962Z,963.82
2016-08-16T03:19:03.980Z,963.82
2016-08-16T03:20:03.977Z,963.81
2016-08-16T03:21:03.986Z,963.84
2016-08-16T03:22:03.996Z,963.83
2016-08-16T03:23:04.004Z,963.82
2016-08-16T03:24:04.318Z,963.85
2016-08-16T03:25:04.025Z,963.86
2016-08-16T03:26:04.036Z,963.83
2016-08-16T03:27:04.037Z,963.84
2016-08-16T03:28:04.044Z,963.83
2016-08-16T03:29:04.053Z,963.83
2016-08-16T03:30:04.069Z,963.78
2016-08-16T03:31:04.075Z,963.79
2016-08-16T03:32:04.077Z,963.82
2016-08-16T03:33:04.086Z,963.84
2016-08-16T03:34:04.096Z,963.81
2016-08-16T03:35:04.099Z,963.83
2016-08-16T03:36:04.109Z,963.8
2016-08-16T03:37:04.117Z,963.8
2016-08-16T03:38:04.126Z,963.8
2016-08-16T03:39:04.133Z,963.8
2016-08-16T03:40:04.143Z,963.83
2016-08-16T03:41:04.158Z,963.75
2016-08-16T03:42:04.165Z,963.76
2016-08-16T03:43:04.172Z,963.75
2016-08-16T03:44:04.181Z,963.76
2016-08-16T03:45:04.189Z,963.74
2016-08-16T03:46:04.198Z,963.75
2016-08-16T03:47:04.197Z,963.7
2016-08-16T03:48:04.215Z,963.72
2016-08-16T03:49:04.221Z,963.68
2016-08-16T03:50:04.222Z,963.7
2016-08-16T03:51:04.239Z,963.7
2016-08-16T03:52:04.240Z,963.7
2016-08-16T03:53:04.256Z,963.7
2016-08-16T03:54:04.255Z,963.73
2016-08-16T03:55:04.265Z,963.7
2016-08-16T03:56:04.278Z,963.72
2016-08-16T03:57:04.289Z,963.72
2016-08-16T03:58:04.292Z,963.73
2016-08-16T03:59:04.304Z,963.73
2016-08-16T04:00:04.312Z,963.7
2016-08-16T04:01:04.320Z,963.71
2016-08-16T04:02:04.319Z,963.71
2016-08-16T04:03:04.326Z,963.72
2016-08-16T04:04:04.350Z,963.73
2016-08-16T04:05:04.352Z,963.74
2016-08-16T04:06:04.355Z,963.76
2016-08-16T04:07:04.369Z,963.73
2016-08-16T04:08:04.376Z,963.73
2016-08-16T04:09:04.380Z,963.75
2016-08-16T04:10:04.387Z,963.8
2016-08-16T04:11:04.403Z,963.76
2016-08-16T04:12:04.410Z,963.76
2016-08-16T04:13:04.717Z,963.79
2016-08-16T04:14:04.420Z,963.74
2016-08-16T04:15:04.441Z,963.77
2016-08-16T04:16:04.442Z,963.73
2016-08-16T04:17:04.444Z,963.74
2016-08-16T04:18:04.462Z,963.77
2016-08-16T04:19:04.461Z,963.78
2016-08-16T04:20:04.468Z,963.75
2016-08-16T04:21:04.485Z,963.77
2016-08-16T04:22:04.493Z,963.75
2016-08-16T04:23:04.494Z,963.75
2016-08-16T04:24:04.510Z,963.73
2016-08-16T04:25:04.508Z,963.71
2016-08-16T04:26:04.525Z,963.74
2016-08-16T04:27:04.527Z,963.71
2016-08-16T04:28:04.542Z,963.72
2016-08-16T04:29:04.550Z,963.74
2016-08-16T04:30:04.551Z,963.73
2016-08-16T04:31:04.565Z,963.75
2016-08-16T04:32:04.582Z,963.78
2016-08-16T04:33:04.574Z,963.73
2016-08-16T04:34:04.584Z,963.73
2016-08-16T04:35:04.588Z,963.77
2016-08-16T04:36:04.600Z,963.78
2016-08-16T04:37:04.614Z,963.76
2016-08-16T04:38:04.622Z,963.77
2016-08-16T04:39:04.633Z,963.72
2016-08-16T04:40:04.631Z,963.74
2016-08-16T04:41:04.641Z,963.74
2016-08-16T04:42:04.656Z,963.74
2016-08-16T04:43:04.656Z,963.76
2016-08-16T04:44:04.677Z,963.73
2016-08-16T04:45:04.677Z,963.74
2016-08-16T04:46:04.686Z,963.72
2016-08-16T04:47:04.696Z,963.67
2016-08-16T04:48:04.704Z,963.67
2016-08-16T04:49:04.705Z,963.66
2016-08-16T04:50:04.713Z,963.69
2016-08-16T04:51:04.726Z,963.67
2016-08-16T04:52:04.729Z,963.69
2016-08-16T04:53:04.736Z,963.62
2016-08-16T04:54:04.746Z,963.63
2016-08-16T04:55:04.764Z,963.63
2016-08-16T04:56:04.768Z,963.65
2016-08-16T04:57:04.771Z,963.65
2016-08-16T04:58:04.784Z,963.63
2016-08-16T04:59:04.794Z,963.57
2016-08-16T05:00:04.796Z,963.6
2016-08-16T05:01:04.808Z,963.59
2016-08-16T05:02:04.814Z,963.62
2016-08-16T05:03:04.820Z,963.61
2016-08-16T05:04:04.828Z,963.58
2016-08-16T05:05:04.838Z,963.61
2016-08-16T05:06:04.850Z,963.59
2016-08-16T05:07:04.859Z,963.58
2016-08-16T05:08:04.859Z,963.6
2016-08-16T05:09:04.872Z,963.6
2016-08-16T05:10:04.885Z,963.6
2016-08-16T05:11:04.893Z,963.57
2016-08-16T05:12:04.901Z,963.6
2016-08-16T05:13:04.909Z,963.58
2016-08-16T05:14:04.910Z,963.59
2016-08-16T05:15:04.917Z,963.62
2016-08-16T05:16:04.934Z,963.57
2016-08-16T05:17:04.935Z,963.59
2016-08-16T05:18:04.941Z,963.57
2016-08-16T05:19:04.952Z,963.57
2016-08-16T05:20:04.968Z,963.55
2016-08-16T05:21:04.974Z,963.59
2016-08-16T05:22:04.975Z,963.53
2016-08-16T05:23:04.990Z,963.52
2016-08-16T05:24:04.990Z,963.53
2016-08-16T05:25:05.000Z,963.63
2016-08-16T05:26:05.014Z,963.64
2016-08-16T05:27:05.014Z,963.62
2016-08-16T05:28:05.023Z,963.66
2016-08-16T05:29:05.034Z,963.66
2016-08-16T05:30:05.042Z,963.63
2016-08-16T05:31:05.047Z,963.63
2016-08-16T05:32:05.058Z,963.57
2016-08-16T05:33:05.065Z,963.6
2016-08-16T05:34:05.074Z,963.6
2016-08-16T05:35:05.084Z,963.57
2016-08-16T05:36:05.088Z,963.54
2016-08-16T05:37:05.104Z,963.58
2016-08-16T05:38:05.112Z,963.56
2016-08-16T05:39:05.214Z,963.52
2016-08-16T05:40:05.123Z,963.55
2016-08-16T05:41:05.133Z,963.5
2016-08-16T05:42:05.140Z,963.51
2016-08-16T05:43:05.151Z,963.5
2016-08-16T05:44:05.168Z,963.52
2016-08-16T05:45:05.176Z,963.56
2016-08-16T05:46:05.184Z,963.51
2016-08-16T05:47:05.188Z,963.51
2016-08-16T05:48:05.190Z,963.53
2016-08-16T05:49:05.199Z,963.49
2016-08-16T05:50:05.208Z,963.52
2016-08-16T05:51:05.210Z,963.49
2016-08-16T05:52:05.224Z,963.47
2016-08-16T05:53:05.237Z,963.5
2016-08-16T05:54:05.245Z,963.45
2016-08-16T05:55:05.247Z,963.47
2016-08-16T05:56:05.262Z,963.46
2016-08-16T05:57:05.264Z,963.46
2016-08-16T05:58:05.273Z,963.48
2016-08-16T05:59:05.290Z,963.43
2016-08-16T06:00:05.298Z,963.48
2016-08-16T06:01:05.296Z,963.47
2016-08-16T06:02:05.312Z,963.47
2016-08-16T06:03:05.314Z,963.48
2016-08-16T06:04:05.325Z,963.49
2016-08-16T06:05:05.338Z,963.55
2016-08-16T06:06:05.339Z,963.51
2016-08-16T06:07:05.352Z,963.49
2016-08-16T06:08:05.354Z,963.5
2016-08-16T06:09:05.366Z,963.49
2016-08-16T06:10:05.371Z,963.49
2016-08-16T06:11:05.380Z,963.45
2016-08-16T06:12:05.389Z,963.48
2016-08-16T06:13:05.396Z,963.48
2016-08-16T06:14:05.405Z,963.46
2016-08-16T06:15:05.419Z,963.49
2016-08-16T06:16:05.423Z,963.46
2016-08-16T06:17:05.429Z,963.47
2016-08-16T06:18:05.443Z,963.49
2016-08-16T06:19:05.450Z,963.49
2016-08-16T06:20:05.457Z,963.48
2016-08-16T06:21:05.463Z,963.5
2016-08-16T06:22:05.475Z,963.48
2016-08-16T06:23:05.486Z,963.47
2016-08-16T06:24:05.493Z,963.49
2016-08-16T06:25:05.502Z,963.45
2016-08-16T06:26:05.510Z,963.47
2016-08-16T06:27:05.518Z,963.47
2016-08-16T06:28:05.518Z,963.45
2016-08-16T06:29:05.529Z,963.49
2016-08-16T06:30:05.535Z,963.43
2016-08-16T06:31:05.551Z,963.43
2016-08-16T06:32:05.550Z,963.44
2016-08-16T06:33:05.567Z,963.43
2016-08-16T06:34:05.569Z,963.41
2016-08-16T06:35:05.582Z,963.44
2016-08-16T06:36:05.591Z,963.42
2016-08-16T06:37:05.593Z,963.42
2016-08-16T06:38:05.603Z,963.45
2016-08-16T06:39:05.608Z,963.42
2016-08-16T06:40:05.616Z,963.4
2016-08-16T06:41:05.633Z,963.42
2016-08-16T06:42:05.636Z,963.41
2016-08-16T06:43:05.642Z,963.43
2016-08-16T06:44:05.659Z,963.41
2016-08-16T06:45:05.658Z,963.41
2016-08-16T06:46:05.674Z,963.42
2016-08-16T06:47:05.684Z,963.4
2016-08-16T06:48:05.691Z,963.42
2016-08-16T06:49:05.700Z,963.42
2016-08-16T06:50:05.708Z,963.41
2016-08-16T06:51:05.718Z,963.38
2016-08-16T06:52:05.722Z,963.43
2016-08-16T06:53:05.726Z,963.43
2016-08-16T06:54:05.732Z,963.42
2016-08-16T06:55:05.746Z,963.44
2016-08-16T06:56:05.752Z,963.42
2016-08-16T06:57:05.758Z,963.44
2016-08-16T06:58:05.772Z,963.45
2016-08-16T06:59:05.776Z,963.5
2016-08-16T07:00:05.781Z,963.45
2016-08-16T07:01:05.803Z,963.46
2016-08-16T07:02:05.809Z,963.46
2016-08-16T07:03:05.809Z,963.46
2016-08-16T07:04:05.817Z,963.46
2016-08-16T07:05:05.822Z,963.49
2016-08-16T07:06:05.840Z,963.49
2016-08-16T07:07:05.837Z,963.48
2016-08-16T07:08:05.843Z,963.45
2016-08-16T07:09:05.861Z,963.48
2016-08-16T07:10:05.864Z,963.5
2016-08-16T07:11:05.880Z,963.45
2016-08-16T07:12:05.881Z,963.44
2016-08-16T07:13:05.895Z,963.45
2016-08-16T07:14:05.904Z,963.45
2016-08-16T07:15:05.906Z,963.43
2016-08-16T07:16:05.920Z,963.46
2016-08-16T07:17:05.921Z,963.43
2016-08-16T07:18:05.935Z,963.4
2016-08-16T07:19:05.948Z,963.44
2016-08-16T07:20:05.948Z,963.42
2016-08-16T07:21:05.958Z,963.4
2016-08-16T07:22:05.972Z,963.37
2016-08-16T07:23:05.978Z,963.4
2016-08-16T07:24:05.989Z,963.39
2016-08-16T07:25:05.988Z,963.43
2016-08-16T07:26:06.005Z,963.38
2016-08-16T07:27:06.013Z,963.42
2016-08-16T07:28:06.013Z,963.44
2016-08-16T07:29:06.030Z,963.42
2016-08-16T07:30:06.031Z,963.45
2016-08-16T07:31:06.040Z,963.46
2016-08-16T07:32:06.047Z,963.44
2016-08-16T07:33:06.062Z,963.43
2016-08-16T07:34:06.061Z,963.45
2016-08-16T07:35:06.079Z,963.4
2016-08-16T07:36:06.082Z,963.39
2016-08-16T07:37:06.089Z,963.4
2016-08-16T07:38:06.095Z,963.35
2016-08-16T07:39:06.105Z,963.38
2016-08-16T07:40:06.124Z,963.39
2016-08-16T07:41:06.122Z,963.37
2016-08-16T07:42:06.128Z,963.37
2016-08-16T07:43:06.146Z,963.38
2016-08-16T07:44:06.153Z,963.37
2016-08-16T07:45:06.163Z,963.4
2016-08-16T07:46:06.170Z,963.38
2016-08-16T07:47:06.173Z,963.34
2016-08-16T07:48:06.178Z,963.36
2016-08-16T07:49:06.188Z,963.34
2016-08-16T07:50:06.205Z,963.31
2016-08-16T07:51:06.208Z,963.33
2016-08-16T07:52:06.215Z,963.33
2016-08-16T07:53:06.223Z,963.32
2016-08-16T07:54:06.231Z,963.32
2016-08-16T07:55:06.246Z,963.33
2016-08-16T07:56:06.249Z,963.35
2016-08-16T07:57:06.297Z,963.34
2016-08-16T07:58:06.267Z,963.34
2016-08-16T07:59:06.283Z,963.3
2016-08-16T08:00:06.291Z,963.35
2016-08-16T08:01:06.300Z,963.33
2016-08-16T08:02:06.310Z,963.32
2016-08-16T08:03:06.315Z,963.34
2016-08-16T08:04:06.319Z,963.33
2016-08-16T08:05:06.326Z,963.34
2016-08-16T08:06:06.336Z,963.35
2016-08-16T08:07:06.352Z,963.38
2016-08-16T08:08:06.368Z,963.32
2016-08-16T08:09:06.365Z,963.31
2016-08-16T08:10:06.376Z,963.32
2016-08-16T08:11:06.379Z,963.28
2016-08-16T08:12:06.395Z,963.31
2016-08-16T08:13:06.397Z,963.33
2016-08-16T08:14:06.402Z,963.35
2016-08-16T08:15:06.418Z,963.34
2016-08-16T08:16:06.429Z,963.31
2016-08-16T08:17:06.435Z,963.35
2016-08-16T08:18:06.440Z,963.37
2016-08-16T08:19:06.457Z,963.37
2016-08-16T08:20:06.454Z,963.36
2016-08-16T08:21:06.463Z,963.33
2016-08-16T08:22:06.478Z,963.37
2016-08-16T08:23:06.480Z,963.36
2016-08-16T08:24:06.492Z,963.35
2016-08-16T08:25:06.506Z,963.34
2016-08-16T08:26:06.512Z,963.36
2016-08-16T08:27:06.527Z,963.35
2016-08-16T08:28:06.524Z,963.3
2016-08-16T08:29:06.538Z,963.31
2016-08-16T08:30:06.549Z,963.3
2016-08-16T08:31:06.559Z,963.29
2016-08-16T08:32:06.562Z,963.28
2016-08-16T08:33:06.571Z,963.28
2016-08-16T08:34:06.578Z,963.31
2016-08-16T08:35:06.583Z,963.27
2016-08-16T08:36:06.593Z,963.28
2016-08-16T08:37:06.601Z,963.32
2016-08-16T08:38:06.632Z,963.31
2016-08-16T08:39:06.627Z,963.29
2016-08-16T08:40:06.627Z,963.31
2016-08-16T08:41:06.638Z,963.28
2016-08-16T08:42:06.647Z,963.25
2016-08-16T08:43:06.661Z,963.26
2016-08-16T08:44:06.670Z,963.22
2016-08-16T08:45:06.672Z,963.18
2016-08-16T08:46:06.689Z,963.19
2016-08-16T08:47:06.689Z,963.16
2016-08-16T08:48:06.705Z,963.18
2016-08-16T08:49:06.715Z,963.17
2016-08-16T08:50:06.716Z,963.18
2016-08-16T08:51:06.725Z,963.13
2016-08-16T08:52:06.739Z,963.12
2016-08-16T08:53:06.754Z,963.09
2016-08-16T08:54:06.753Z,963.09
2016-08-16T08:55:06.769Z,963.08
2016-08-16T08:56:06.777Z,963.11
2016-08-16T08:57:06.777Z,963.07
2016-08-16T08:58:06.795Z,963.09
2016-08-16T08:59:06.803Z,963.08
2016-08-16T09:00:06.808Z,963.1
2016-08-16T09:01:06.813Z,963.09
2016-08-16T09:02:06.823Z,963.05
2016-08-16T09:03:06.835Z,963.04
2016-08-16T09:04:06.843Z,963.06
2016-08-16T09:05:06.849Z,963.01
2016-08-16T09:06:06.859Z,963.02
2016-08-16T09:07:06.874Z,963.03
2016-08-16T09:08:06.877Z,963.04
2016-08-16T09:09:06.887Z,963.01
2016-08-16T09:10:06.895Z,962.96
2016-08-16T09:11:06.902Z,963
2016-08-16T09:12:06.919Z,963
2016-08-16T09:13:06.928Z,962.95
2016-08-16T09:14:06.931Z,962.94
2016-08-16T09:15:06.945Z,962.93
2016-08-16T09:16:06.954Z,962.93
2016-08-16T09:17:06.959Z,962.91
2016-08-16T09:18:06.967Z,962.89
2016-08-16T09:19:06.976Z,962.92
2016-08-16T09:20:06.991Z,962.92
2016-08-16T09:21:06.996Z,962.94
2016-08-16T09:22:07.003Z,962.9
2016-08-16T09:23:07.013Z,962.93
2016-08-16T09:24:07.022Z,962.94
2016-08-16T09:25:07.032Z,962.95
2016-08-16T09:26:07.039Z,962.91
2016-08-16T09:27:07.048Z,962.92
2016-08-16T09:28:07.063Z,962.92
2016-08-16T09:29:07.067Z,962.94
2016-08-16T09:30:07.075Z,962.92
2016-08-16T09:31:07.090Z,962.93
2016-08-16T09:32:07.101Z,962.91
2016-08-16T09:33:07.113Z,962.87
2016-08-16T09:34:07.111Z,962.87
2016-08-16T09:35:07.126Z,962.86
2016-08-16T09:36:07.130Z,962.84
2016-08-16T09:37:07.141Z,962.83
2016-08-16T09:38:07.156Z,962.84
2016-08-16T09:39:07.158Z,962.81
2016-08-16T09:40:07.165Z,962.83
2016-08-16T09:41:07.176Z,962.82
2016-08-16T09:42:07.188Z,962.79
2016-08-16T09:43:07.201Z,962.82
2016-08-16T09:44:07.208Z,962.82
2016-08-16T09:45:07.217Z,962.77
2016-08-16T09:46:07.220Z,962.84
2016-08-16T09:47:07.235Z,962.81
2016-08-16T09:48:07.246Z,962.78
2016-08-16T09:49:07.244Z,962.79
2016-08-16T09:50:07.262Z,962.79
2016-08-16T09:51:07.271Z,962.75
2016-08-16T09:52:07.282Z,962.75
2016-08-16T09:53:07.282Z,962.79
2016-08-16T09:54:07.291Z,962.77
2016-08-16T09:55:07.303Z,962.79
2016-08-16T09:56:07.317Z,962.72
2016-08-16T09:57:07.326Z,962.78
2016-08-16T09:58:07.334Z,962.72
2016-08-16T09:59:07.339Z,962.69
2016-08-16T10:00:07.352Z,962.67
2016-08-16T10:01:07.352Z,962.7
2016-08-16T10:02:07.367Z,962.68
2016-08-16T10:03:07.383Z,962.68
2016-08-16T10:04:07.390Z,962.65
2016-08-16T10:05:07.390Z,962.67
2016-08-16T10:06:07.404Z,962.66
2016-08-16T10:07:07.413Z,962.66
2016-08-16T10:08:07.423Z,962.63
2016-08-16T10:09:07.424Z,962.6
2016-08-16T10:10:07.440Z,962.61
2016-08-16T10:11:07.452Z,962.55
2016-08-16T10:12:07.460Z,962.55
2016-08-16T10:13:07.470Z,962.57
2016-08-16T10:14:07.471Z,962.54
2016-08-16T10:15:07.486Z,962.54
2016-08-16T10:16:07.487Z,962.55
2016-08-16T10:17:07.502Z,962.56
2016-08-16T10:18:07.504Z,962.56
2016-08-16T10:19:07.525Z,962.57
2016-08-16T10:20:07.530Z,962.49
2016-08-16T10:21:07.533Z,962.48
2016-08-16T10:22:07.540Z,962.49
2016-08-16T10:23:07.558Z,962.47
2016-08-16T10:24:07.561Z,962.5
2016-08-16T10:25:07.578Z,962.49
2016-08-16T10:26:07.578Z,962.49
2016-08-16T10:27:07.617Z,962.48
2016-08-16T10:28:07.603Z,962.48
2016-08-16T10:29:07.604Z,962.45
2016-08-16T10:30:07.619Z,962.4
2016-08-16T10:31:07.631Z,962.44
2016-08-16T10:32:07.643Z,962.42
2016-08-16T10:33:07.644Z,962.4
2016-08-16T10:34:07.661Z,962.4
2016-08-16T10:35:07.669Z,962.39
2016-08-16T10:36:07.671Z,962.42
2016-08-16T10:37:07.692Z,962.41
2016-08-16T10:38:07.698Z,962.39
2016-08-16T10:39:07.701Z,962.39
2016-08-16T10:40:07.707Z,962.33
2016-08-16T10:41:07.724Z,962.35
2016-08-16T10:42:07.733Z,962.35
2016-08-16T10:43:07.738Z,962.36
2016-08-16T10:44:07.748Z,962.34
2016-08-16T10:45:07.763Z,962.36
2016-08-16T10:46:07.765Z,962.37
2016-08-16T10:47:07.778Z,962.3
2016-08-16T10:48:07.782Z,962.29
2016-08-16T10:49:07.791Z,962.28
2016-08-16T10:50:07.804Z,962.26
2016-08-16T10:51:07.818Z,962.27
2016-08-16T10:52:07.818Z,962.26
2016-08-16T10:53:07.836Z,962.28
2016-08-16T10:54:07.841Z,962.29
2016-08-16T10:55:07.855Z,962.27
2016-08-16T10:56:07.866Z,962.28
2016-08-16T10:57:07.875Z,962.23
2016-08-16T10:58:07.888Z,962.25
2016-08-16T10:59:07.887Z,962.22
2016-08-16T11:00:07.903Z,962.22
2016-08-16T11:01:07.913Z,962.2
2016-08-16T11:02:07.922Z,962.14
2016-08-16T11:03:07.930Z,962.17
2016-08-16T11:04:07.942Z,962.13
2016-08-16T11:05:07.943Z,962.15
2016-08-16T11:06:07.950Z,962.11
2016-08-16T11:07:07.962Z,962.1
2016-08-16T11:08:07.978Z,962.1
2016-08-16T11:09:07.979Z,962.1
2016-08-16T11:10:07.994Z,962.09
2016-08-16T11:11:08.004Z,962.12
2016-08-16T11:12:08.016Z,962.1
2016-08-16T11:13:08.017Z,962.1
2016-08-16T11:14:08.032Z,962.08
2016-08-16T11:15:08.056Z,962.11
2016-08-16T11:16:08.047Z,962.1
2016-08-16T11:17:08.055Z,962.08
2016-08-16T11:18:08.071Z,962.1
2016-08-16T11:19:08.081Z,962.08
2016-08-16T11:20:08.086Z,962.06
2016-08-16T11:21:08.091Z,962.08
2016-08-16T11:22:08.099Z,962.03
2016-08-16T11:23:08.117Z,962
2016-08-16T11:24:08.123Z,962.01
2016-08-16T11:25:08.133Z,962.03
2016-08-16T11:26:08.139Z,961.98
2016-08-16T11:27:08.158Z,962
2016-08-16T11:28:08.165Z,962.01
2016-08-16T11:29:08.172Z,961.98
2016-08-16T11:30:08.176Z,962.01
2016-08-16T11:31:08.186Z,962.01
2016-08-16T11:32:08.191Z,961.98
2016-08-16T11:33:08.201Z,961.98
2016-08-16T11:34:08.212Z,961.99
2016-08-16T11:35:08.225Z,961.97
2016-08-16T11:36:08.234Z,961.96
2016-08-16T11:37:08.245Z,961.93
2016-08-16T11:38:08.253Z,961.94
2016-08-16T11:39:08.256Z,961.93
2016-08-16T11:40:08.274Z,961.92
2016-08-16T11:41:08.277Z,961.91
2016-08-16T11:42:08.291Z,961.93
2016-08-16T11:43:08.292Z,961.92
2016-08-16T11:44:08.310Z,961.88
2016-08-16T11:45:08.313Z,961.91
2016-08-16T11:46:08.322Z,961.91
2016-08-16T11:47:08.332Z,961.87
2016-08-16T11:48:08.341Z,961.85
2016-08-16T11:49:08.356Z,961.83
2016-08-16T11:50:08.368Z,961.83
2016-08-16T11:51:08.368Z,961.8
2016-08-16T11:52:08.396Z,961.82
2016-08-16T11:53:08.397Z,961.75
2016-08-16T11:54:08.416Z,961.77
2016-08-16T11:55:08.411Z,961.79
2016-08-16T11:56:08.424Z,961.8
2016-08-16T11:57:08.433Z,961.76
2016-08-16T11:58:08.445Z,961.76
2016-08-16T11:59:08.452Z,961.72
2016-08-16T12:00:08.458Z,961.72
2016-08-16T12:01:08.467Z,961.7
2016-08-16T12:02:08.486Z,961.72
2016-08-16T12:03:08.487Z,961.72
2016-08-16T12:04:08.495Z,961.7
2016-08-16T12:05:08.513Z,961.67
2016-08-16T12:06:08.515Z,961.67
2016-08-16T12:07:08.527Z,961.67
2016-08-16T12:08:08.541Z,961.67
2016-08-16T12:09:08.551Z,961.63
2016-08-16T12:10:08.573Z,961.66
2016-08-16T12:11:08.561Z,961.66
2016-08-16T12:12:08.583Z,961.67
2016-08-16T12:13:08.583Z,961.59
2016-08-16T12:14:08.600Z,961.59
2016-08-16T12:15:08.608Z,961.57
2016-08-16T12:16:08.609Z,961.61
2016-08-16T12:17:08.617Z,961.61
2016-08-16T12:18:08.631Z,961.64
2016-08-16T12:19:08.641Z,961.61
2016-08-16T12:20:08.658Z,961.61
2016-08-16T12:21:08.666Z,961.63
2016-08-16T12:22:08.666Z,961.58
2016-08-16T12:23:08.684Z,961.59
2016-08-16T12:24:08.687Z,961.55
2016-08-16T12:25:08.700Z,961.54
2016-08-16T12:26:08.714Z,961.55
2016-08-16T12:27:08.721Z,961.58
2016-08-16T12:28:08.732Z,961.54
2016-08-16T12:29:08.742Z,961.52
2016-08-16T12:30:08.741Z,961.52